Desoto — WDE3761 — position and weather

sailwx.info

Track history (hours):
 
Tides and Currents Weather Stations Pressure Air Temp Water Temp Dewpoint Dewpoint Depression Visibility Wind Speed Wind Dir Waves Ship Positions

Desoto

Owner: Tampa Pilots LLC, tampa, FL. More information available from US FCC via Universal Licensing System and Coast Guard Vessel Documentation Center.

Last reported at 2014-Oct-25 07:28 UTC. Time now 2014-Oct-25 07:57 UTC.
Position N 27°35' W 082°46'.

Length 18 m.

Type: Pilot. MMSI: 367343870.

Date/timePositionNaut miles runAvg speedWind from/ knotsBaromVisibWave heightAir tempDewpointWater temp
2014-Oct-25 07:28N 27°35' W 082°46'0 0.0
2014-Oct-25 06:31N 27°35' W 082°46'0 0.0
2014-Oct-25 05:31N 27°35' W 082°46'0 0.0
2014-Oct-25 04:31N 27°35' W 082°46'0 0.0
2014-Oct-25 03:31N 27°35' W 082°46'0 0.0
2014-Oct-25 02:31N 27°35' W 082°46'0 0.0
2014-Oct-25 01:31N 27°35' W 082°46'0 0.0
2014-Oct-25 00:31N 27°35' W 082°46'0 0.0
2014-Oct-24 23:31N 27°35' W 082°46'0 0.0
2014-Oct-24 22:31N 27°35' W 082°46'0 0.0
2014-Oct-24 21:31N 27°35' W 082°46'0 0.0
2014-Oct-24 20:31N 27°35' W 082°46'0 0.0
2014-Oct-24 19:31N 27°35' W 082°46'0 0.0
2014-Oct-24 18:31N 27°35' W 082°46'0 0.0
2014-Oct-24 17:28N 27°35' W 082°46'2 2.2
2014-Oct-24 16:34N 27°37' W 082°47'2 2.3
2014-Oct-24 15:33N 27°36' W 082°50'4 3.9
2014-Oct-24 14:32N 27°35' W 082°46'0 0.0
2014-Oct-24 13:32N 27°35' W 082°46'0 0.0
2014-Oct-24 12:32N 27°35' W 082°46'0 0.0
2014-Oct-24 11:29N 27°35' W 082°46'2 2.7
2014-Oct-24 10:33N 27°37' W 082°44'5 5.4
2014-Oct-24 09:34N 27°36' W 082°50'4 4.5
2014-Oct-24 08:33N 27°36' W 082°45'1 1.4
2014-Oct-24 07:31N 27°35' W 082°46'0 0.0
2014-Oct-24 06:31N 27°35' W 082°46'0 0.0
2014-Oct-24 05:31N 27°35' W 082°46'0 0.0
2014-Oct-24 04:31N 27°35' W 082°46'0 0.0
2014-Oct-24 03:31N 27°35' W 082°46'0 0.0
2014-Oct-24 02:31N 27°35' W 082°46'0 0.0
2014-Oct-24 01:31N 27°35' W 082°46'0 0.0
2014-Oct-24 00:28N 27°35' W 082°46'0 0.0
2014-Oct-23 22:19N 27°35' W 082°46'0 0.0
2014-Oct-23 21:31N 27°35' W 082°46'0 0.0
2014-Oct-23 20:31N 27°35' W 082°46'0 0.0
2014-Oct-23 19:31N 27°35' W 082°46'0 0.0
2014-Oct-23 18:31N 27°35' W 082°46'0 0.0
2014-Oct-23 17:31N 27°35' W 082°46'0 0.0
2014-Oct-23 16:31N 27°35' W 082°46'1 0.9
2014-Oct-23 15:32N 27°36' W 082°45'4 3.9
2014-Oct-23 14:34N 27°36' W 082°49'4 3.5
2014-Oct-23 13:34N 27°36' W 082°45'1 1.4
2014-Oct-23 12:34N 27°37' W 082°44'2 2.5
2014-Oct-23 11:33N 27°35' W 082°46'2 2.4
2014-Oct-23 10:33N 27°37' W 082°44'2 2.3
2014-Oct-23 09:30N 27°35' W 082°46'0 0.0
2014-Oct-23 08:31N 27°35' W 082°46'0 0.0
2014-Oct-23 07:34N 27°35' W 082°46'0 0.0
2014-Oct-23 06:33N 27°35' W 082°46'0 0.0
2014-Oct-23 05:33N 27°35' W 082°46'0 0.0
2014-Oct-23 04:23N 27°35' W 082°46'0 0.0
2014-Oct-23 03:34N 27°35' W 082°46'0 0.0
2014-Oct-23 02:33N 27°35' W 082°46'0 0.0
2014-Oct-23 01:34N 27°35' W 082°46'0 0.0
2014-Oct-23 00:34N 27°35' W 082°46'0 0.0
2014-Oct-22 23:34N 27°35' W 082°46'0 0.0
2014-Oct-22 22:33N 27°35' W 082°46'0 0.0
2014-Oct-22 21:34N 27°35' W 082°46'0 0.0
2014-Oct-22 20:33N 27°35' W 082°46'0 0.1
2014-Oct-22 19:33N 27°35' W 082°45'0 0.1
2014-Oct-22 18:32N 27°35' W 082°46'2 1.9
2014-Oct-22 17:34N 27°37' W 082°47'2 1.8
2014-Oct-22 16:31N 27°35' W 082°46'0 0.0
2014-Oct-22 15:28N 27°35' W 082°46'0 0.0
2014-Oct-22 14:13N 27°35' W 082°46'0 0.0
2014-Oct-22 13:31N 27°35' W 082°46'0 0.0
2014-Oct-22 12:31N 27°35' W 082°46'0 0.0
2014-Oct-22 11:31N 27°35' W 082°46'0 0.0
2014-Oct-22 10:31N 27°35' W 082°46'0 0.0
2014-Oct-22 09:31N 27°35' W 082°46'0 0.0
2014-Oct-22 08:31N 27°35' W 082°46'0 0.0
2014-Oct-22 07:28N 27°35' W 082°46'0 0.0
2014-Oct-22 06:31N 27°35' W 082°46'0 0.0
2014-Oct-22 05:31N 27°35' W 082°46'0 0.0
2014-Oct-22 04:31N 27°35' W 082°46'0 0.0
2014-Oct-22 03:31N 27°35' W 082°46'0 0.0
2014-Oct-22 02:31N 27°35' W 082°46'0 0.0
2014-Oct-22 01:25N 27°35' W 082°46'0 0.0
2014-Oct-22 00:13N 27°35' W 082°46'0 0.0
2014-Oct-21 23:31N 27°35' W 082°46'0 0.0
2014-Oct-21 22:31N 27°35' W 082°46'0 0.0
2014-Oct-21 21:31N 27°35' W 082°46'0 0.0
2014-Oct-21 20:31N 27°35' W 082°46'0 0.0
2014-Oct-21 19:31N 27°35' W 082°46'0 0.0
2014-Oct-21 18:33N 27°35' W 082°46'0 0.0
2014-Oct-21 17:31N 27°35' W 082°46'0 0.0
2014-Oct-21 16:33N 27°35' W 082°46'0 0.0
2014-Oct-21 15:30N 27°35' W 082°46'0 0.0
2014-Oct-21 14:33N 27°35' W 082°46'0 0.0
2014-Oct-21 13:33N 27°35' W 082°46'0 0.0
2014-Oct-21 12:33N 27°35' W 082°46'0 0.0
2014-Oct-21 10:24N 27°35' W 082°46'0 0.0
2014-Oct-21 09:27N 27°35' W 082°46'0 0.0
2014-Oct-21 07:13N 27°35' W 082°46'0 0.0
2014-Oct-21 06:31N 27°35' W 082°46'0 0.0
2014-Oct-21 05:31N 27°35' W 082°46'0 0.0
2014-Oct-21 04:19N 27°35' W 082°46'0 0.0
2014-Oct-21 02:31N 27°35' W 082°46'0 0.0
2014-Oct-21 01:19N 27°35' W 082°46'0 0.0
2014-Oct-21 00:31N 27°35' W 082°46'1 1.3
2014-Oct-20 23:34N 27°36' W 082°45'1 1.3
2014-Oct-20 22:33N 27°37' W 082°44'2 2.5
2014-Oct-20 21:32N 27°35' W 082°46'0 0.0
2014-Oct-20 20:33N 27°35' W 082°46'0 0.0
2014-Oct-20 19:32N 27°35' W 082°46'0 0.0
2014-Oct-20 18:32N 27°35' W 082°46'0 0.0
2014-Oct-20 17:32N 27°35' W 082°46'0 0.0
2014-Oct-20 16:32N 27°35' W 082°46'0 0.0
2014-Oct-20 15:17N 27°35' W 082°46'1 1.6
2014-Oct-20 14:33N 27°36' W 082°44'1 1.2
2014-Oct-20 13:33N 27°35' W 082°46'0 0.0
2014-Oct-20 12:33N 27°35' W 082°46'0 0.0
2014-Oct-20 11:33N 27°35' W 082°46'2 2.1
2014-Oct-20 10:33N 27°37' W 082°44'2 2.0
2014-Oct-20 09:33N 27°35' W 082°46'0 0.0
2014-Oct-20 08:33N 27°35' W 082°46'0 0.0
2014-Oct-20 07:34N 27°35' W 082°46'0 0.0
2014-Oct-20 06:34N 27°35' W 082°46'0 0.0
2014-Oct-20 05:33N 27°35' W 082°46'0 0.0
2014-Oct-20 04:33N 27°35' W 082°46'0 0.0
2014-Oct-20 03:34N 27°35' W 082°46'0 0.0
2014-Oct-20 02:34N 27°35' W 082°46'0 0.0
2014-Oct-20 01:33N 27°35' W 082°46'0 0.0
2014-Oct-20 00:33N 27°35' W 082°46'0 0.0
2014-Oct-19 23:33N 27°35' W 082°46'0 0.0
2014-Oct-19 22:33N 27°35' W 082°46'0 0.0
2014-Oct-19 21:34N 27°35' W 082°46'0 0.0
2014-Oct-19 20:33N 27°35' W 082°46'0 0.0
2014-Oct-19 19:33N 27°35' W 082°46'0 0.0
2014-Oct-19 18:33N 27°35' W 082°46'0 0.0
2014-Oct-19 17:32N 27°35' W 082°46'0 0.0
2014-Oct-19 16:33N 27°35' W 082°46'0 0.0
2014-Oct-19 15:33N 27°35' W 082°46'0 0.0
2014-Oct-19 14:33N 27°35' W 082°46'0 0.0
2014-Oct-19 13:33N 27°35' W 082°46'0 0.0
2014-Oct-19 12:33N 27°35' W 082°46'0 0.0
2014-Oct-19 11:33N 27°35' W 082°46'3 2.5
2014-Oct-19 10:33N 27°37' W 082°44'2 2.4
2014-Oct-19 09:32N 27°35' W 082°46'0 0.0
2014-Oct-19 08:32N 27°35' W 082°46'0 0.0
2014-Oct-19 07:33N 27°35' W 082°46'0 0.0
2014-Oct-19 06:33N 27°35' W 082°46'0 0.0
2014-Oct-19 05:33N 27°35' W 082°46'2 2.4
2014-Oct-19 04:33N 27°37' W 082°44'8 8.0
2014-Oct-19 03:33N 27°36' W 082°53'6 6.2
2014-Oct-19 02:33N 27°35' W 082°46'0 0.0
2014-Oct-19 01:33N 27°35' W 082°46'0 0.0
2014-Oct-19 00:33N 27°35' W 082°46'2 1.8
2014-Oct-18 23:33N 27°37' W 082°47'2 1.7
2014-Oct-18 22:32N 27°36' W 082°45'2 2.3
2014-Oct-18 21:32N 27°37' W 082°47'2 2.3
2014-Oct-18 20:32N 27°35' W 082°46'0 0.0
2014-Oct-18 19:32N 27°35' W 082°46'0 0.0
2014-Oct-18 18:32N 27°35' W 082°46'0 0.0
2014-Oct-18 17:32N 27°35' W 082°46'0 0.0
2014-Oct-18 16:32N 27°35' W 082°46'0 0.0
2014-Oct-18 15:32N 27°35' W 082°46'1 1.0
2014-Oct-18 14:08N 27°36' W 082°44'1 1.9
2014-Oct-18 13:23N 27°35' W 082°46'0 0.0
2014-Oct-18 12:32N 27°35' W 082°46'0 0.0
2014-Oct-18 11:31N 27°35' W 082°46'0 0.0
2014-Oct-18 10:31N 27°35' W 082°46'0 0.0
2014-Oct-18 09:31N 27°35' W 082°46'0 0.0
2014-Oct-18 08:31N 27°35' W 082°46'2 1.7
2014-Oct-18 07:33N 27°37' W 082°47'1 1.2
2014-Oct-18 06:34N 27°37' W 082°48'3 2.5
2014-Oct-18 05:31N 27°35' W 082°46'0 0.0
2014-Oct-18 04:28N 27°35' W 082°46'0 0.0
2014-Oct-18 03:28N 27°35' W 082°46'0 0.0
2014-Oct-18 02:31N 27°35' W 082°46'0 0.0
2014-Oct-18 01:13N 27°35' W 082°46'0 0.0
2014-Oct-18 00:31N 27°35' W 082°46'0 0.0
2014-Oct-17 23:25N 27°35' W 082°46'0 0.0
2014-Oct-17 22:31N 27°35' W 082°46'0 0.0
2014-Oct-17 21:31N 27°35' W 082°46'0 0.0
2014-Oct-17 20:31N 27°35' W 082°46'0 0.0
2014-Oct-17 19:31N 27°35' W 082°46'0 0.0
2014-Oct-17 18:31N 27°35' W 082°46'0 0.0
2014-Oct-17 17:31N 27°35' W 082°46'0 0.0
2014-Oct-17 16:31N 27°35' W 082°46'0 0.0
2014-Oct-17 14:31N 27°35' W 082°46'0 0.0
2014-Oct-17 13:31N 27°35' W 082°46'0 0.0
2014-Oct-17 12:31N 27°35' W 082°46'0 0.0
2014-Oct-17 11:31N 27°35' W 082°46'0 0.0
2014-Oct-17 10:31N 27°35' W 082°46'0 0.0
2014-Oct-17 09:31N 27°35' W 082°46'0 0.0
2014-Oct-17 08:31N 27°35' W 082°46'0 0.0
2014-Oct-17 07:31N 27°35' W 082°46'0 0.0
2014-Oct-17 06:31N 27°35' W 082°46'0 0.0
2014-Oct-17 05:31N 27°35' W 082°46'0 0.0
2014-Oct-17 04:31N 27°35' W 082°46'0 0.0
2014-Oct-17 03:31N 27°35' W 082°46'0 0.0
2014-Oct-17 02:31N 27°35' W 082°46'0 0.0
2014-Oct-17 01:28N 27°35' W 082°46'0 0.0
2014-Oct-17 00:31N 27°35' W 082°46'0 0.0
2014-Oct-16 23:33N 27°35' W 082°46'0 0.0
2014-Oct-16 22:33N 27°35' W 082°46'0 0.0
2014-Oct-16 21:33N 27°35' W 082°46'0 0.0
2014-Oct-16 20:33N 27°35' W 082°46'0 0.0
2014-Oct-16 19:33N 27°35' W 082°46'0 0.0
2014-Oct-16 18:33N 27°35' W 082°46'0 0.0
2014-Oct-16 17:33N 27°35' W 082°46'0 0.0
2014-Oct-16 16:33N 27°35' W 082°46'0 0.0
2014-Oct-16 15:33N 27°35' W 082°46'0 0.0
2014-Oct-16 14:33N 27°35' W 082°46'0 0.0
2014-Oct-16 13:33N 27°35' W 082°46'0 0.0
2014-Oct-16 12:30N 27°35' W 082°46'0 0.0
2014-Oct-16 11:33N 27°35' W 082°46'0 0.0
2014-Oct-16 10:33N 27°35' W 082°46'0 0.0
2014-Oct-16 09:33N 27°35' W 082°46'0 0.0
2014-Oct-16 08:33N 27°35' W 082°46'0 0.0
2014-Oct-16 07:33N 27°35' W 082°46'0 0.0
2014-Oct-16 06:33N 27°35' W 082°46'0 0.0
2014-Oct-16 05:33N 27°35' W 082°46'0 0.0
2014-Oct-16 04:33N 27°35' W 082°46'0 0.0
2014-Oct-16 03:33N 27°35' W 082°46'0 0.0
2014-Oct-16 02:33N 27°35' W 082°46'0 0.0
2014-Oct-16 01:24N 27°35' W 082°46'0 0.0
2014-Oct-16 00:15N 27°35' W 082°46'0 0.0
2014-Oct-15 23:33N 27°35' W 082°46'0 0.0
2014-Oct-15 22:33N 27°35' W 082°46'0 0.0
2014-Oct-15 21:33N 27°35' W 082°46'0 0.0
2014-Oct-15 20:33N 27°35' W 082°46'0 0.0
2014-Oct-15 19:33N 27°35' W 082°46'0 0.0
2014-Oct-15 18:25N 27°35' W 082°46'0 0.0
2014-Oct-15 17:31N 27°35' W 082°46'0 0.0
2014-Oct-15 16:33N 27°35' W 082°46'0 0.0
2014-Oct-15 15:33N 27°35' W 082°46'1 0.7
2014-Oct-15 14:33N 27°36' W 082°45'1 0.7
2014-Oct-15 13:33N 27°35' W 082°46'0 0.0
2014-Oct-15 12:33N 27°35' W 082°46'0 0.0
2014-Oct-15 11:33N 27°35' W 082°46'3 2.5
2014-Oct-15 10:33N 27°37' W 082°48'3 3.0
2014-Oct-15 09:34N 27°36' W 082°45'6 5.6
2014-Oct-15 08:33N 27°36' W 082°51'5 4.8
2014-Oct-15 07:32N 27°35' W 082°46'  
Track history (hours):
 
Tides and Currents Weather Stations Pressure Air Temp Water Temp Dewpoint Dewpoint Depression Visibility Wind Speed Wind Dir Waves Ship Positions

Desoto

Owner: Tampa Pilots LLC, tampa, FL. More information available from US FCC via Universal Licensing System and Coast Guard Vessel Documentation Center.

Last reported at 2014-Oct-25 07:28 UTC. Time now 2014-Oct-25 07:57 UTC.
Position N 27°35' W 082°46'.

Length 18 m.

Type: Pilot. MMSI: 367343870.

Date/timePositionNaut miles runAvg speedWind from/ knotsBaromVisibWave heightAir tempDewpointWater temp
2014-Oct-25 07:28N 27°35' W 082°46'0 0.0
2014-Oct-25 06:31N 27°35' W 082°46'0 0.0
2014-Oct-25 05:31N 27°35' W 082°46'0 0.0
2014-Oct-25 04:31N 27°35' W 082°46'0 0.0
2014-Oct-25 03:31N 27°35' W 082°46'0 0.0
2014-Oct-25 02:31N 27°35' W 082°46'0 0.0
2014-Oct-25 01:31N 27°35' W 082°46'0 0.0
2014-Oct-25 00:31N 27°35' W 082°46'0 0.0
2014-Oct-24 23:31N 27°35' W 082°46'0 0.0
2014-Oct-24 22:31N 27°35' W 082°46'0 0.0
2014-Oct-24 21:31N 27°35' W 082°46'0 0.0
2014-Oct-24 20:31N 27°35' W 082°46'0 0.0
2014-Oct-24 19:31N 27°35' W 082°46'0 0.0
2014-Oct-24 18:31N 27°35' W 082°46'0 0.0
2014-Oct-24 17:28N 27°35' W 082°46'2 2.2
2014-Oct-24 16:34N 27°37' W 082°47'2 2.3
2014-Oct-24 15:33N 27°36' W 082°50'4 3.9
2014-Oct-24 14:32N 27°35' W 082°46'0 0.0
2014-Oct-24 13:32N 27°35' W 082°46'0 0.0
2014-Oct-24 12:32N 27°35' W 082°46'0 0.0
2014-Oct-24 11:29N 27°35' W 082°46'2 2.7
2014-Oct-24 10:33N 27°37' W 082°44'5 5.4
2014-Oct-24 09:34N 27°36' W 082°50'4 4.5
2014-Oct-24 08:33N 27°36' W 082°45'1 1.4
2014-Oct-24 07:31N 27°35' W 082°46'0 0.0
2014-Oct-24 06:31N 27°35' W 082°46'0 0.0
2014-Oct-24 05:31N 27°35' W 082°46'0 0.0
2014-Oct-24 04:31N 27°35' W 082°46'0 0.0
2014-Oct-24 03:31N 27°35' W 082°46'0 0.0
2014-Oct-24 02:31N 27°35' W 082°46'0 0.0
2014-Oct-24 01:31N 27°35' W 082°46'0 0.0
2014-Oct-24 00:28N 27°35' W 082°46'0 0.0
2014-Oct-23 22:19N 27°35' W 082°46'0 0.0
2014-Oct-23 21:31N 27°35' W 082°46'0 0.0
2014-Oct-23 20:31N 27°35' W 082°46'0 0.0
2014-Oct-23 19:31N 27°35' W 082°46'0 0.0
2014-Oct-23 18:31N 27°35' W 082°46'0 0.0
2014-Oct-23 17:31N 27°35' W 082°46'0 0.0
2014-Oct-23 16:31N 27°35' W 082°46'1 0.9
2014-Oct-23 15:32N 27°36' W 082°45'4 3.9
2014-Oct-23 14:34N 27°36' W 082°49'4 3.5
2014-Oct-23 13:34N 27°36' W 082°45'1 1.4
2014-Oct-23 12:34N 27°37' W 082°44'2 2.5
2014-Oct-23 11:33N 27°35' W 082°46'2 2.4
2014-Oct-23 10:33N 27°37' W 082°44'2 2.3
2014-Oct-23 09:30N 27°35' W 082°46'0 0.0
2014-Oct-23 08:31N 27°35' W 082°46'0 0.0
2014-Oct-23 07:34N 27°35' W 082°46'0 0.0
2014-Oct-23 06:33N 27°35' W 082°46'0 0.0
2014-Oct-23 05:33N 27°35' W 082°46'0 0.0
2014-Oct-23 04:23N 27°35' W 082°46'0 0.0
2014-Oct-23 03:34N 27°35' W 082°46'0 0.0
2014-Oct-23 02:33N 27°35' W 082°46'0 0.0
2014-Oct-23 01:34N 27°35' W 082°46'0 0.0
2014-Oct-23 00:34N 27°35' W 082°46'0 0.0
2014-Oct-22 23:34N 27°35' W 082°46'0 0.0
2014-Oct-22 22:33N 27°35' W 082°46'0 0.0
2014-Oct-22 21:34N 27°35' W 082°46'0 0.0
2014-Oct-22 20:33N 27°35' W 082°46'0 0.1
2014-Oct-22 19:33N 27°35' W 082°45'0 0.1
2014-Oct-22 18:32N 27°35' W 082°46'2 1.9
2014-Oct-22 17:34N 27°37' W 082°47'2 1.8
2014-Oct-22 16:31N 27°35' W 082°46'0 0.0
2014-Oct-22 15:28N 27°35' W 082°46'0 0.0
2014-Oct-22 14:13N 27°35' W 082°46'0 0.0
2014-Oct-22 13:31N 27°35' W 082°46'0 0.0
2014-Oct-22 12:31N 27°35' W 082°46'0 0.0
2014-Oct-22 11:31N 27°35' W 082°46'0 0.0
2014-Oct-22 10:31N 27°35' W 082°46'0 0.0
2014-Oct-22 09:31N 27°35' W 082°46'0 0.0
2014-Oct-22 08:31N 27°35' W 082°46'0 0.0
2014-Oct-22 07:28N 27°35' W 082°46'0 0.0
2014-Oct-22 06:31N 27°35' W 082°46'0 0.0
2014-Oct-22 05:31N 27°35' W 082°46'0 0.0
2014-Oct-22 04:31N 27°35' W 082°46'0 0.0
2014-Oct-22 03:31N 27°35' W 082°46'0 0.0
2014-Oct-22 02:31N 27°35' W 082°46'0 0.0
2014-Oct-22 01:25N 27°35' W 082°46'0 0.0
2014-Oct-22 00:13N 27°35' W 082°46'0 0.0
2014-Oct-21 23:31N 27°35' W 082°46'0 0.0
2014-Oct-21 22:31N 27°35' W 082°46'0 0.0
2014-Oct-21 21:31N 27°35' W 082°46'0 0.0
2014-Oct-21 20:31N 27°35' W 082°46'0 0.0
2014-Oct-21 19:31N 27°35' W 082°46'0 0.0
2014-Oct-21 18:33N 27°35' W 082°46'0 0.0
2014-Oct-21 17:31N 27°35' W 082°46'0 0.0
2014-Oct-21 16:33N 27°35' W 082°46'0 0.0
2014-Oct-21 15:30N 27°35' W 082°46'0 0.0
2014-Oct-21 14:33N 27°35' W 082°46'0 0.0
2014-Oct-21 13:33N 27°35' W 082°46'0 0.0
2014-Oct-21 12:33N 27°35' W 082°46'0 0.0
2014-Oct-21 10:24N 27°35' W 082°46'0 0.0
2014-Oct-21 09:27N 27°35' W 082°46'0 0.0
2014-Oct-21 07:13N 27°35' W 082°46'0 0.0
2014-Oct-21 06:31N 27°35' W 082°46'0 0.0
2014-Oct-21 05:31N 27°35' W 082°46'0 0.0
2014-Oct-21 04:19N 27°35' W 082°46'0 0.0
2014-Oct-21 02:31N 27°35' W 082°46'0 0.0
2014-Oct-21 01:19N 27°35' W 082°46'0 0.0
2014-Oct-21 00:31N 27°35' W 082°46'1 1.3
2014-Oct-20 23:34N 27°36' W 082°45'1 1.3
2014-Oct-20 22:33N 27°37' W 082°44'2 2.5
2014-Oct-20 21:32N 27°35' W 082°46'0 0.0
2014-Oct-20 20:33N 27°35' W 082°46'0 0.0
2014-Oct-20 19:32N 27°35' W 082°46'0 0.0
2014-Oct-20 18:32N 27°35' W 082°46'0 0.0
2014-Oct-20 17:32N 27°35' W 082°46'0 0.0
2014-Oct-20 16:32N 27°35' W 082°46'0 0.0
2014-Oct-20 15:17N 27°35' W 082°46'1 1.6
2014-Oct-20 14:33N 27°36' W 082°44'1 1.2
2014-Oct-20 13:33N 27°35' W 082°46'0 0.0
2014-Oct-20 12:33N 27°35' W 082°46'0 0.0
2014-Oct-20 11:33N 27°35' W 082°46'2 2.1
2014-Oct-20 10:33N 27°37' W 082°44'2 2.0
2014-Oct-20 09:33N 27°35' W 082°46'0 0.0
2014-Oct-20 08:33N 27°35' W 082°46'0 0.0
2014-Oct-20 07:34N 27°35' W 082°46'0 0.0
2014-Oct-20 06:34N 27°35' W 082°46'0 0.0
2014-Oct-20 05:33N 27°35' W 082°46'0 0.0
2014-Oct-20 04:33N 27°35' W 082°46'0 0.0
2014-Oct-20 03:34N 27°35' W 082°46'0 0.0
2014-Oct-20 02:34N 27°35' W 082°46'0 0.0
2014-Oct-20 01:33N 27°35' W 082°46'0 0.0
2014-Oct-20 00:33N 27°35' W 082°46'0 0.0
2014-Oct-19 23:33N 27°35' W 082°46'0 0.0
2014-Oct-19 22:33N 27°35' W 082°46'0 0.0
2014-Oct-19 21:34N 27°35' W 082°46'0 0.0
2014-Oct-19 20:33N 27°35' W 082°46'0 0.0
2014-Oct-19 19:33N 27°35' W 082°46'0 0.0
2014-Oct-19 18:33N 27°35' W 082°46'0 0.0
2014-Oct-19 17:32N 27°35' W 082°46'0 0.0
2014-Oct-19 16:33N 27°35' W 082°46'0 0.0
2014-Oct-19 15:33N 27°35' W 082°46'0 0.0
2014-Oct-19 14:33N 27°35' W 082°46'0 0.0
2014-Oct-19 13:33N 27°35' W 082°46'0 0.0
2014-Oct-19 12:33N 27°35' W 082°46'0 0.0
2014-Oct-19 11:33N 27°35' W 082°46'3 2.5
2014-Oct-19 10:33N 27°37' W 082°44'2 2.4
2014-Oct-19 09:32N 27°35' W 082°46'0 0.0
2014-Oct-19 08:32N 27°35' W 082°46'0 0.0
2014-Oct-19 07:33N 27°35' W 082°46'0 0.0
2014-Oct-19 06:33N 27°35' W 082°46'0 0.0
2014-Oct-19 05:33N 27°35' W 082°46'2 2.4
2014-Oct-19 04:33N 27°37' W 082°44'8 8.0
2014-Oct-19 03:33N 27°36' W 082°53'6 6.2
2014-Oct-19 02:33N 27°35' W 082°46'0 0.0
2014-Oct-19 01:33N 27°35' W 082°46'0 0.0
2014-Oct-19 00:33N 27°35' W 082°46'2 1.8
2014-Oct-18 23:33N 27°37' W 082°47'2 1.7
2014-Oct-18 22:32N 27°36' W 082°45'2 2.3
2014-Oct-18 21:32N 27°37' W 082°47'2 2.3
2014-Oct-18 20:32N 27°35' W 082°46'0 0.0
2014-Oct-18 19:32N 27°35' W 082°46'0 0.0
2014-Oct-18 18:32N 27°35' W 082°46'0 0.0
2014-Oct-18 17:32N 27°35' W 082°46'0 0.0
2014-Oct-18 16:32N 27°35' W 082°46'0 0.0
2014-Oct-18 15:32N 27°35' W 082°46'1 1.0
2014-Oct-18 14:08N 27°36' W 082°44'1 1.9
2014-Oct-18 13:23N 27°35' W 082°46'0 0.0
2014-Oct-18 12:32N 27°35' W 082°46'0 0.0
2014-Oct-18 11:31N 27°35' W 082°46'0 0.0
2014-Oct-18 10:31N 27°35' W 082°46'0 0.0
2014-Oct-18 09:31N 27°35' W 082°46'0 0.0
2014-Oct-18 08:31N 27°35' W 082°46'2 1.7
2014-Oct-18 07:33N 27°37' W 082°47'1 1.2
2014-Oct-18 06:34N 27°37' W 082°48'3 2.5
2014-Oct-18 05:31N 27°35' W 082°46'0 0.0
2014-Oct-18 04:28N 27°35' W 082°46'0 0.0
2014-Oct-18 03:28N 27°35' W 082°46'0 0.0
2014-Oct-18 02:31N 27°35' W 082°46'0 0.0
2014-Oct-18 01:13N 27°35' W 082°46'0 0.0
2014-Oct-18 00:31N 27°35' W 082°46'0 0.0
2014-Oct-17 23:25N 27°35' W 082°46'0 0.0
2014-Oct-17 22:31N 27°35' W 082°46'0 0.0
2014-Oct-17 21:31N 27°35' W 082°46'0 0.0
2014-Oct-17 20:31N 27°35' W 082°46'0 0.0
2014-Oct-17 19:31N 27°35' W 082°46'0 0.0
2014-Oct-17 18:31N 27°35' W 082°46'0 0.0
2014-Oct-17 17:31N 27°35' W 082°46'0 0.0
2014-Oct-17 16:31N 27°35' W 082°46'0 0.0
2014-Oct-17 14:31N 27°35' W 082°46'0 0.0
2014-Oct-17 13:31N 27°35' W 082°46'0 0.0
2014-Oct-17 12:31N 27°35' W 082°46'0 0.0
2014-Oct-17 11:31N 27°35' W 082°46'0 0.0
2014-Oct-17 10:31N 27°35' W 082°46'0 0.0
2014-Oct-17 09:31N 27°35' W 082°46'0 0.0
2014-Oct-17 08:31N 27°35' W 082°46'0 0.0
2014-Oct-17 07:31N 27°35' W 082°46'0 0.0
2014-Oct-17 06:31N 27°35' W 082°46'0 0.0
2014-Oct-17 05:31N 27°35' W 082°46'0 0.0
2014-Oct-17 04:31N 27°35' W 082°46'0 0.0
2014-Oct-17 03:31N 27°35' W 082°46'0 0.0
2014-Oct-17 02:31N 27°35' W 082°46'0 0.0
2014-Oct-17 01:28N 27°35' W 082°46'0 0.0
2014-Oct-17 00:31N 27°35' W 082°46'0 0.0
2014-Oct-16 23:33N 27°35' W 082°46'0 0.0
2014-Oct-16 22:33N 27°35' W 082°46'0 0.0
2014-Oct-16 21:33N 27°35' W 082°46'0 0.0
2014-Oct-16 20:33N 27°35' W 082°46'0 0.0
2014-Oct-16 19:33N 27°35' W 082°46'0 0.0
2014-Oct-16 18:33N 27°35' W 082°46'0 0.0
2014-Oct-16 17:33N 27°35' W 082°46'0 0.0
2014-Oct-16 16:33N 27°35' W 082°46'0 0.0
2014-Oct-16 15:33N 27°35' W 082°46'0 0.0
2014-Oct-16 14:33N 27°35' W 082°46'0 0.0
2014-Oct-16 13:33N 27°35' W 082°46'0 0.0
2014-Oct-16 12:30N 27°35' W 082°46'0 0.0
2014-Oct-16 11:33N 27°35' W 082°46'0 0.0
2014-Oct-16 10:33N 27°35' W 082°46'0 0.0
2014-Oct-16 09:33N 27°35' W 082°46'0 0.0
2014-Oct-16 08:33N 27°35' W 082°46'0 0.0
2014-Oct-16 07:33N 27°35' W 082°46'0 0.0
2014-Oct-16 06:33N 27°35' W 082°46'0 0.0
2014-Oct-16 05:33N 27°35' W 082°46'0 0.0
2014-Oct-16 04:33N 27°35' W 082°46'0 0.0
2014-Oct-16 03:33N 27°35' W 082°46'0 0.0
2014-Oct-16 02:33N 27°35' W 082°46'0 0.0
2014-Oct-16 01:24N 27°35' W 082°46'0 0.0
2014-Oct-16 00:15N 27°35' W 082°46'0 0.0
2014-Oct-15 23:33N 27°35' W 082°46'0 0.0
2014-Oct-15 22:33N 27°35' W 082°46'0 0.0
2014-Oct-15 21:33N 27°35' W 082°46'0 0.0
2014-Oct-15 20:33N 27°35' W 082°46'0 0.0
2014-Oct-15 19:33N 27°35' W 082°46'0 0.0
2014-Oct-15 18:25N 27°35' W 082°46'0 0.0
2014-Oct-15 17:31N 27°35' W 082°46'0 0.0
2014-Oct-15 16:33N 27°35' W 082°46'0 0.0
2014-Oct-15 15:33N 27°35' W 082°46'1 0.7
2014-Oct-15 14:33N 27°36' W 082°45'1 0.7
2014-Oct-15 13:33N 27°35' W 082°46'0 0.0
2014-Oct-15 12:33N 27°35' W 082°46'0 0.0
2014-Oct-15 11:33N 27°35' W 082°46'3 2.5
2014-Oct-15 10:33N 27°37' W 082°48'3 3.0
2014-Oct-15 09:34N 27°36' W 082°45'6 5.6
2014-Oct-15 08:33N 27°36' W 082°51'5 4.8
2014-Oct-15 07:32N 27°35' W 082°46'  

Dump ship's entire track history